Time;durP1;ratioP1;P1;durP2;ratioP2;P2;SDS_P1;SDS_P2;PMS_P1;PMS_P2;Temp;Humidity;BMP_temperature;BMP_pressure;BME280_temperature;BME280_humidity;BME280_pressure;Samples;Min_cycle;Max_cycle;Signal;HPM_P1;HPM_P2
2021/05/29 00:02:03;;;;;;;1.37;0.87;;;;;;;;;;4943806;28;20067;-77
2021/05/29 00:04:29;;;;;;;2.40;0.97;;;;;;;;;;4960388;28;20034;-77
2021/05/29 00:06:54;;;;;;;1.80;1.00;;;;;;;;;;4977366;28;20061;-77
2021/05/29 00:09:19;;;;;;;2.47;1.20;;;;;;;;;;4959856;28;20061;-77
2021/05/29 00:11:45;;;;;;;1.83;1.00;;;;;;;;;;4943610;28;20114;-77
2021/05/29 00:14:10;;;;;;;1.83;1.10;;;;;;;;;;4959460;28;20113;-77
2021/05/29 00:16:35;;;;;;;1.43;0.90;;;;;;;;;;4943667;28;20061;-77
2021/05/29 00:19:01;;;;;;;1.57;0.93;;;;;;;;;;4976850;28;20085;-77
2021/05/29 00:21:26;;;;;;;1.50;1.00;;;;;;;;;;4943695;28;20023;-77
2021/05/29 00:23:51;;;;;;;2.00;1.17;;;;;;;;;;4959370;28;20062;-77
2021/05/29 00:26:17;;;;;;;1.50;0.90;;;;;;;;;;4959623;28;20072;-77
2021/05/29 00:28:42;;;;;;;1.47;1.00;;;;;;;;;;4943559;28;20054;-77
2021/05/29 00:31:07;;;;;;;1.80;0.90;;;;;;;;;;4959206;28;20037;-77
2021/05/29 00:33:33;;;;;;;1.40;0.90;;;;;;;;;;4959420;28;20439;-77
2021/05/29 00:35:58;;;;;;;3.63;1.20;;;;;;;;;;4976545;28;20054;-77
2021/05/29 00:38:24;;;;;;;1.30;0.80;;;;;;;;;;4943368;28;20066;-77
2021/05/29 00:40:49;;;;;;;1.83;1.10;;;;;;;;;;4959358;28;20043;-77
2021/05/29 00:43:14;;;;;;;1.40;0.97;;;;;;;;;;4943178;28;20049;-77
2021/05/29 00:45:40;;;;;;;1.90;0.90;;;;;;;;;;4959213;28;20137;-77
2021/05/29 00:48:05;;;;;;;1.67;1.00;;;;;;;;;;4959085;28;20054;-77
2021/05/29 00:50:31;;;;;;;1.37;0.90;;;;;;;;;;4942950;28;20031;-77
2021/05/29 00:52:57;;;;;;;1.60;0.90;;;;;;;;;;4942859;28;20037;-77
2021/05/29 00:55:22;;;;;;;1.53;1.03;;;;;;;;;;4942736;28;20277;-77
2021/05/29 00:57:48;;;;;;;2.07;1.20;;;;;;;;;;4943215;28;20030;-77
2021/05/29 01:00:16;;;;;;;1.67;1.05;;;;;;;;;;4959824;28;20019;-77
2021/05/29 01:02:41;;;;;;;1.90;0.93;;;;;;;;;;4959007;28;20383;-77
2021/05/29 01:05:08;;;;;;;1.63;1.00;;;;;;;;;;4959021;28;20031;-77
2021/05/29 01:07:33;;;;;;;1.70;1.00;;;;;;;;;;4958717;28;20097;-77
2021/05/29 01:09:59;;;;;;;1.60;1.03;;;;;;;;;;4959148;28;20034;-77
2021/05/29 01:12:24;;;;;;;1.50;0.97;;;;;;;;;;4959179;28;20121;-77
2021/05/29 01:14:57;;;;;;;2.10;1.10;;;;;;;;;;4976099;28;20058;-77
2021/05/29 01:17:23;;;;;;;1.88;0.98;;;;;;;;;;4976140;28;20031;-77
2021/05/29 01:23:11;;;;;;;1.80;1.02;;;;;;;;;;4976370;28;20122;-77
2021/05/29 01:25:41;;;;;;;1.60;1.07;;;;;;;;;;4959056;28;20054;-77
2021/05/29 01:28:08;;;;;;;1.80;1.00;;;;;;;;;;4958859;28;20030;-77
2021/05/29 01:30:43;;;;;;;;;;;;;;;;;;4976102;28;20030;-77
2021/05/29 01:33:19;;;;;;;1.50;0.82;;;;;;;;;;4958963;28;19960;-77
2021/05/29 01:35:44;;;;;;;1.23;0.90;;;;;;;;;;4942437;28;20030;-77
2021/05/29 01:38:14;;;;;;;1.87;0.90;;;;;;;;;;4958627;28;20505;-77
2021/05/29 01:40:39;;;;;;;2.10;1.00;;;;;;;;;;4958363;28;20026;-77
2021/05/29 01:43:08;;;;;;;1.53;0.90;;;;;;;;;;4958469;28;20030;-77
2021/05/29 01:45:35;;;;;;;1.90;1.10;;;;;;;;;;4958253;28;20023;-77
2021/05/29 01:48:02;;;;;;;1.98;1.17;;;;;;;;;;4958437;28;20435;-77
2021/05/29 01:50:27;;;;;;;1.52;0.90;;;;;;;;;;4958241;28;20031;-77
2021/05/29 01:52:57;;;;;;;1.43;1.03;;;;;;;;;;4975720;28;20054;-77
2021/05/29 01:55:27;;;;;;;1.85;1.00;;;;;;;;;;4942148;28;20096;-77
2021/05/29 01:57:53;;;;;;;1.83;1.00;;;;;;;;;;4957928;28;20023;-77
2021/05/29 02:00:19;;;;;;;1.63;1.00;;;;;;;;;;4957875;28;20021;-77
2021/05/29 02:02:44;;;;;;;1.80;1.08;;;;;;;;;;4941957;28;20475;-77
2021/05/29 02:05:15;;;;;;;1.67;1.00;;;;;;;;;;4958049;28;20118;-77
2021/05/29 02:07:40;;;;;;;1.98;0.98;;;;;;;;;;4957763;28;20031;-77
2021/05/29 02:10:06;;;;;;;1.57;1.00;;;;;;;;;;4957819;28;20509;-77
2021/05/29 02:12:39;;;;;;;1.90;0.90;;;;;;;;;;4958152;28;20470;-77
2021/05/29 02:15:05;;;;;;;1.70;1.10;;;;;;;;;;4941854;28;20078;-77
2021/05/29 02:17:31;;;;;;;1.80;1.00;;;;;;;;;;4957796;28;20030;-77
2021/05/29 02:19:56;;;;;;;1.87;1.00;;;;;;;;;;4957263;28;20062;-77
2021/05/29 02:22:21;;;;;;;2.07;1.00;;;;;;;;;;4941538;28;20058;-77
2021/05/29 02:24:47;;;;;;;1.93;1.00;;;;;;;;;;4941692;28;20062;-77
2021/05/29 02:27:12;;;;;;;1.87;1.07;;;;;;;;;;4957824;28;20115;-77
2021/05/29 02:29:37;;;;;;;1.50;0.90;;;;;;;;;;4974646;28;20047;-77
2021/05/29 02:32:03;;;;;;;1.57;1.07;;;;;;;;;;4959763;23;20066;-76
2021/05/29 02:34:28;;;;;;;1.70;1.10;;;;;;;;;;4974569;28;20084;-76
2021/05/29 02:36:54;;;;;;;1.40;0.97;;;;;;;;;;4957186;28;20631;-76
2021/05/29 02:39:19;;;;;;;2.03;1.00;;;;;;;;;;4957801;28;20429;-76
2021/05/29 02:41:44;;;;;;;1.50;0.90;;;;;;;;;;4941128;28;20426;-74
2021/05/29 02:44:10;;;;;;;1.73;1.10;;;;;;;;;;4957062;28;20023;-74
2021/05/29 02:46:35;;;;;;;1.63;1.07;;;;;;;;;;4957436;28;20062;-74
2021/05/29 02:49:00;;;;;;;1.70;1.03;;;;;;;;;;4974235;28;20058;-74
2021/05/29 02:51:25;;;;;;;1.37;0.80;;;;;;;;;;4941066;28;20506;-74
2021/05/29 02:53:51;;;;;;;1.37;0.90;;;;;;;;;;4956931;28;20431;-74
2021/05/29 02:56:16;;;;;;;2.40;1.27;;;;;;;;;;4941000;28;20109;-74
2021/05/29 02:58:41;;;;;;;1.47;1.00;;;;;;;;;;4956918;28;20157;-74
2021/05/29 03:01:07;;;;;;;1.53;1.00;;;;;;;;;;4957034;28;20106;-74
2021/05/29 03:03:32;;;;;;;1.40;0.93;;;;;;;;;;4974069;28;20066;-74
2021/05/29 03:05:57;;;;;;;1.80;1.10;;;;;;;;;;4974117;28;20058;-74
2021/05/29 03:08:23;;;;;;;2.13;1.10;;;;;;;;;;4974121;28;20069;-74
2021/05/29 03:10:50;;;;;;;1.43;0.87;;;;;;;;;;4940709;28;20126;-74
2021/05/29 03:13:16;;;;;;;1.92;1.00;;;;;;;;;;4957439;28;20031;-74
2021/05/29 03:15:41;;;;;;;1.53;0.90;;;;;;;;;;4956703;28;20450;-74
2021/05/29 03:18:06;;;;;;;2.07;0.93;;;;;;;;;;4940782;28;20081;-74
2021/05/29 03:20:32;;;;;;;2.03;1.00;;;;;;;;;;4940677;28;20113;-74
2021/05/29 03:22:57;;;;;;;2.40;1.10;;;;;;;;;;4940666;28;20050;-74
2021/05/29 03:25:23;;;;;;;1.20;0.90;;;;;;;;;;4956851;28;20472;-74
2021/05/29 03:27:50;;;;;;;2.20;0.93;;;;;;;;;;4940684;28;20173;-74
2021/05/29 03:30:16;;;;;;;2.63;1.08;;;;;;;;;;4958304;28;20027;-74
2021/05/29 03:32:42;;;;;;;1.80;1.13;;;;;;;;;;4944104;28;20039;-74
2021/05/29 03:35:08;;;;;;;1.40;0.80;;;;;;;;;;4960502;28;20447;-74
2021/05/29 03:37:33;;;;;;;1.33;0.90;;;;;;;;;;4960227;28;20030;-74
2021/05/29 03:39:59;;;;;;;1.77;1.03;;;;;;;;;;4960122;28;20033;-74
2021/05/29 03:42:24;;;;;;;1.57;1.00;;;;;;;;;;4960140;28;20494;-74
2021/05/29 03:44:49;;;;;;;1.37;0.90;;;;;;;;;;4944095;28;20422;-74
2021/05/29 03:47:15;;;;;;;1.97;1.10;;;;;;;;;;4944552;28;20131;-74
2021/05/29 03:49:40;;;;;;;1.60;0.97;;;;;;;;;;4977314;28;20051;-74
2021/05/29 03:52:07;;;;;;;1.83;1.00;;;;;;;;;;4943901;28;20528;-74
2021/05/29 03:54:32;;;;;;;1.45;0.90;;;;;;;;;;4960230;28;20034;-74
2021/05/29 03:56:58;;;;;;;1.87;1.03;;;;;;;;;;4943869;28;20031;-74
2021/05/29 03:59:23;;;;;;;1.60;1.07;;;;;;;;;;4943831;28;20026;-74
2021/05/29 04:01:48;;;;;;;1.47;0.90;;;;;;;;;;4943728;28;20050;-74
2021/05/29 04:04:14;;;;;;;1.67;0.90;;;;;;;;;;4959657;28;20135;-74
2021/05/29 04:06:39;;;;;;;2.47;0.97;;;;;;;;;;4943694;28;20493;-74
2021/05/29 04:09:05;;;;;;;1.53;0.90;;;;;;;;;;4959518;28;20081;-74
2021/05/29 04:11:31;;;;;;;2.03;1.00;;;;;;;;;;4959623;28;20081;-74
2021/05/29 04:13:57;;;;;;;2.03;0.90;;;;;;;;;;4943514;28;20062;-74
2021/05/29 04:16:22;;;;;;;1.70;0.97;;;;;;;;;;4959437;28;20056;-74
2021/05/29 04:18:47;;;;;;;1.60;1.00;;;;;;;;;;4959567;28;20065;-74
2021/05/29 04:21:13;;;;;;;1.37;0.83;;;;;;;;;;4959403;28;20122;-74
2021/05/29 04:23:38;;;;;;;1.40;0.90;;;;;;;;;;4959450;28;20069;-74
2021/05/29 04:26:07;;;;;;;1.43;0.80;;;;;;;;;;4943241;28;20065;-74
2021/05/29 04:28:33;;;;;;;1.90;0.80;;;;;;;;;;4976750;28;20027;-74
2021/05/29 04:30:58;;;;;;;1.40;0.82;;;;;;;;;;4943340;28;20034;-74
2021/05/29 04:33:24;;;;;;;1.30;0.83;;;;;;;;;;4943159;28;20437;-74
2021/05/29 04:35:50;;;;;;;1.60;0.87;;;;;;;;;;4943241;28;20109;-74
2021/05/29 04:38:15;;;;;;;1.67;0.93;;;;;;;;;;4927252;28;20081;-74
2021/05/29 04:40:40;;;;;;;1.30;0.90;;;;;;;;;;4958975;28;20046;-74
2021/05/29 04:43:06;;;;;;;1.97;1.00;;;;;;;;;;4958584;28;20054;-74
2021/05/29 04:45:31;;;;;;;1.67;1.00;;;;;;;;;;4976333;28;20102;-75
2021/05/29 04:47:57;;;;;;;1.80;1.00;;;;;;;;;;4942908;28;20057;-74
2021/05/29 04:50:22;;;;;;;1.80;1.00;;;;;;;;;;4942746;28;20142;-74
2021/05/29 04:52:47;;;;;;;1.80;0.93;;;;;;;;;;4942873;28;20482;-74
2021/05/29 04:55:13;;;;;;;1.70;0.90;;;;;;;;;;4943082;28;20081;-74
2021/05/29 04:57:38;;;;;;;1.33;0.87;;;;;;;;;;4942889;28;20034;-74
2021/05/29 05:00:06;;;;;;;2.20;1.07;;;;;;;;;;4975893;28;20031;-74
2021/05/29 05:02:32;;;;;;;1.50;0.80;;;;;;;;;;4958575;28;20410;-75
2021/05/29 05:04:57;;;;;;;1.67;0.90;;;;;;;;;;4958811;28;20029;-74
2021/05/29 05:07:22;;;;;;;1.73;1.17;;;;;;;;;;4958525;28;20058;-74
2021/05/29 05:09:48;;;;;;;1.60;1.03;;;;;;;;;;4942585;28;20066;-75
2021/05/29 05:12:13;;;;;;;1.30;0.90;;;;;;;;;;4975606;28;20062;-74
2021/05/29 05:14:38;;;;;;;1.90;1.10;;;;;;;;;;4975737;28;20054;-74
2021/05/29 05:17:04;;;;;;;1.83;1.00;;;;;;;;;;4958396;28;20097;-74
2021/05/29 05:19:29;;;;;;;1.77;1.10;;;;;;;;;;4942347;28;20027;-74
2021/05/29 05:21:54;;;;;;;1.23;0.87;;;;;;;;;;4958290;28;20063;-74
2021/05/29 05:24:20;;;;;;;2.10;1.03;;;;;;;;;;4958102;28;20062;-74
2021/05/29 05:26:46;;;;;;;1.83;0.90;;;;;;;;;;4926272;28;20057;-74
2021/05/29 05:29:11;;;;;;;1.70;1.10;;;;;;;;;;4942228;28;20026;-74
2021/05/29 05:31:36;;;;;;;1.67;1.00;;;;;;;;;;4942012;28;20305;-74
2021/05/29 05:34:09;;;;;;;1.60;1.03;;;;;;;;;;4958062;28;20061;-74
2021/05/29 05:36:41;;;;;;;1.85;1.00;;;;;;;;;;4944073;28;20097;-74
2021/05/29 05:39:08;;;;;;;1.88;0.95;;;;;;;;;;4926910;28;20025;-74
2021/05/29 05:41:33;;;;;;;1.20;0.90;;;;;;;;;;4958171;28;20089;-74
2021/05/29 05:43:59;;;;;;;1.47;0.90;;;;;;;;;;4941903;28;20457;-74
2021/05/29 05:46:24;;;;;;;1.07;0.80;;;;;;;;;;4941922;28;20151;-74
2021/05/29 05:48:50;;;;;;;1.50;0.90;;;;;;;;;;4941829;28;20069;-74
2021/05/29 05:51:15;;;;;;;1.52;0.93;;;;;;;;;;4957726;28;20038;-74
2021/05/29 05:53:41;;;;;;;2.40;1.20;;;;;;;;;;4924995;28;20495;-74
2021/05/29 05:56:06;;;;;;;1.43;0.90;;;;;;;;;;4975336;28;20505;-74
2021/05/29 05:58:34;;;;;;;2.03;1.00;;;;;;;;;;4941824;28;20395;-74
2021/05/29 06:00:59;;;;;;;1.33;0.77;;;;;;;;;;4941835;28;20305;-74
2021/05/29 06:03:24;;;;;;;1.07;0.70;;;;;;;;;;4941535;28;20074;-75
2021/05/29 06:05:50;;;;;;;1.80;1.10;;;;;;;;;;4957605;28;20457;-74
2021/05/29 06:08:15;;;;;;;1.57;0.90;;;;;;;;;;4957550;28;20062;-74
2021/05/29 06:10:40;;;;;;;1.63;1.10;;;;;;;;;;4925476;28;20022;-74
2021/05/29 06:13:10;;;;;;;1.60;0.90;;;;;;;;;;4941289;28;20186;-74
2021/05/29 06:21:03;;;;;;;2.05;0.85;;;;;;;;;;4960018;28;20108;-75
2021/05/29 06:23:28;;;;;;;1.23;0.80;;;;;;;;;;4925377;28;20489;-74
2021/05/29 06:25:54;;;;;;;1.87;1.00;;;;;;;;;;4941390;28;20446;-74
2021/05/29 06:28:19;;;;;;;2.23;1.10;;;;;;;;;;4941235;28;20058;-74
2021/05/29 06:30:45;;;;;;;2.00;1.07;;;;;;;;;;4941220;28;20047;-74
2021/05/29 06:33:10;;;;;;;1.47;1.00;;;;;;;;;;4957042;28;20125;-74
2021/05/29 06:35:35;;;;;;;1.40;0.80;;;;;;;;;;4957190;28;20047;-74
2021/05/29 06:38:01;;;;;;;1.60;1.00;;;;;;;;;;4974353;28;20478;-74
2021/05/29 06:40:26;;;;;;;1.60;0.90;;;;;;;;;;4941191;28;20114;-74
2021/05/29 06:42:51;;;;;;;1.97;0.90;;;;;;;;;;4925307;28;20022;-74
2021/05/29 06:45:17;;;;;;;1.20;0.77;;;;;;;;;;4956970;28;20093;-74
2021/05/29 06:47:42;;;;;;;1.17;0.70;;;;;;;;;;4957125;28;20058;-74
2021/05/29 06:50:08;;;;;;;1.70;0.90;;;;;;;;;;4940989;28;20062;-74
2021/05/29 06:52:35;;;;;;;1.38;0.88;;;;;;;;;;4941190;28;20053;-74
2021/05/29 06:58:38;;;;;;;1.45;0.90;;;;;;;;;;4957245;28;20035;-74
2021/05/29 07:00:36;;;;;;;1.30;0.70;;;;;;;;;;4959541;28;20033;-74
2021/05/29 07:03:01;;;;;;;1.47;0.90;;;;;;;;;;4956887;28;20026;-75
2021/05/29 07:05:26;;;;;;;1.77;0.80;;;;;;;;;;4975948;28;20105;-74
2021/05/29 07:07:52;;;;;;;1.40;1.00;;;;;;;;;;4944821;28;20456;-74
2021/05/29 07:10:17;;;;;;;1.20;0.87;;;;;;;;;;4928758;28;20110;-74
2021/05/29 07:12:42;;;;;;;1.20;0.80;;;;;;;;;;4960719;28;20112;-74
2021/05/29 07:15:09;;;;;;;1.53;0.97;;;;;;;;;;4944820;28;20113;-75
2021/05/29 07:17:39;;;;;;;1.65;0.90;;;;;;;;;;4943420;28;20042;-74
2021/05/29 07:20:05;;;;;;;1.33;0.90;;;;;;;;;;4957522;28;20058;-74
2021/05/29 07:22:30;;;;;;;1.75;0.93;;;;;;;;;;4940294;28;20137;-74
2021/05/29 07:24:55;;;;;;;1.50;1.07;;;;;;;;;;4940754;28;20046;-74
2021/05/29 07:27:21;;;;;;;1.60;0.90;;;;;;;;;;4956621;28;20042;-74
2021/05/29 07:29:46;;;;;;;1.63;0.83;;;;;;;;;;4956736;28;20125;-74
2021/05/29 07:32:11;;;;;;;1.93;0.80;;;;;;;;;;4973643;28;20574;-74
2021/05/29 07:34:37;;;;;;;1.60;0.90;;;;;;;;;;4956563;28;20118;-74
2021/05/29 07:37:02;;;;;;;2.57;1.43;;;;;;;;;;4940519;28;20070;-74
2021/05/29 07:39:28;;;;;;;2.77;1.80;;;;;;;;;;4940373;28;20030;-74
2021/05/29 07:41:53;;;;;;;2.87;1.50;;;;;;;;;;4973862;28;20070;-74
2021/05/29 07:44:18;;;;;;;3.37;2.00;;;;;;;;;;4940295;28;20153;-74
2021/05/29 07:46:44;;;;;;;3.57;2.00;;;;;;;;;;4956083;28;20489;-74
2021/05/29 07:49:09;;;;;;;4.33;2.17;;;;;;;;;;4956265;28;20062;-74
2021/05/29 07:51:36;;;;;;;3.63;1.93;;;;;;;;;;4924502;28;20787;-75
2021/05/29 07:54:03;;;;;;;3.25;1.73;;;;;;;;;;4940858;28;20030;-75
2021/05/29 07:56:28;;;;;;;3.25;1.60;;;;;;;;;;4924701;28;20485;-75
2021/05/29 07:58:54;;;;;;;2.13;1.33;;;;;;;;;;4939766;28;20078;-74
2021/05/29 08:01:20;;;;;;;2.13;1.25;;;;;;;;;;4940243;28;20581;-74
2021/05/29 08:03:46;;;;;;;1.52;1.08;;;;;;;;;;4956200;28;20154;-74
2021/05/29 08:06:20;;;;;;;2.57;1.30;;;;;;;;;;4940170;28;20093;-74
2021/05/29 08:08:46;;;;;;;2.45;1.27;;;;;;;;;;4942415;28;20026;-74
2021/05/29 08:11:22;;;;;;;4.50;1.30;;;;;;;;;;4955574;28;20441;-74
2021/05/29 08:13:51;;;;;;;2.58;1.25;;;;;;;;;;4942473;28;20266;-74
2021/05/29 08:16:18;;;;;;;2.33;1.10;;;;;;;;;;4939564;28;20030;-74
2021/05/29 08:18:43;;;;;;;;;;;;;;;;;;4956521;28;20030;-74
2021/05/29 08:21:09;;;;;;;2.10;1.20;;;;;;;;;;4955806;28;20333;-75
2021/05/29 08:23:35;;;;;;;2.27;1.27;;;;;;;;;;4955504;28;20022;-74
2021/05/29 08:26:00;;;;;;;2.33;1.30;;;;;;;;;;4940091;28;20043;-74
2021/05/29 08:28:25;;;;;;;1.93;1.10;;;;;;;;;;4939948;28;20031;-74
2021/05/29 08:30:51;;;;;;;2.23;1.23;;;;;;;;;;4939669;28;20379;-74
2021/05/29 08:33:16;;;;;;;1.97;1.20;;;;;;;;;;4939537;28;20026;-74
2021/05/29 08:35:41;;;;;;;2.80;1.03;;;;;;;;;;4939621;28;20113;-74
2021/05/29 08:38:07;;;;;;;2.33;1.30;;;;;;;;;;4939559;28;20545;-74
2021/05/29 08:40:32;;;;;;;1.60;1.20;;;;;;;;;;4923828;28;20414;-75
2021/05/29 08:42:58;;;;;;;1.80;1.13;;;;;;;;;;4939549;28;20112;-75
2021/05/29 08:45:23;;;;;;;2.03;1.20;;;;;;;;;;4923647;28;20210;-75
2021/05/29 08:47:49;;;;;;;1.50;1.00;;;;;;;;;;4955202;28;20057;-75
2021/05/29 08:50:15;;;;;;;2.17;1.30;;;;;;;;;;4955215;28;20031;-75
2021/05/29 08:52:40;;;;;;;1.85;1.10;;;;;;;;;;4939249;28;20431;-74
2021/05/29 08:55:11;;;;;;;1.47;1.03;;;;;;;;;;4923439;28;20030;-74
2021/05/29 08:57:37;;;;;;;2.20;1.40;;;;;;;;;;4939402;28;20033;-74
2021/05/29 09:00:13;;;;;;;2.17;1.20;;;;;;;;;;4954843;28;20435;-74
2021/05/29 09:03:04;;;;;;;2.15;1.20;;;;;;;;;;4955136;28;20274;-74
2021/05/29 09:05:52;;;;;;;2.25;1.27;;;;;;;;;;4955719;28;20019;-74
2021/05/29 09:08:23;;;;;;;2.75;1.10;;;;;;;;;;4956005;28;20519;-74
2021/05/29 09:10:51;;;;;;;2.08;1.10;;;;;;;;;;4939757;28;20494;-74
2021/05/29 09:13:18;;;;;;;1.65;1.10;;;;;;;;;;4939498;28;20109;-75
2021/05/29 09:15:49;;;;;;;1.70;1.10;;;;;;;;;;4968007;23;20038;-76
2021/05/29 09:18:24;;;;;;;2.10;1.20;;;;;;;;;;4962162;28;20114;-76
2021/05/29 09:20:49;;;;;;;1.90;1.10;;;;;;;;;;4977477;28;20113;-76
2021/05/29 09:23:15;;;;;;;2.47;1.30;;;;;;;;;;4961602;28;20508;-76
2021/05/29 09:25:52;;;;;;;1.53;1.00;;;;;;;;;;4977795;28;20061;-76
2021/05/29 09:28:22;;;;;;;1.70;1.08;;;;;;;;;;4946213;28;20370;-76
2021/05/29 09:30:51;;;;;;;1.55;1.00;;;;;;;;;;4961590;28;20458;-76
2021/05/29 09:33:25;;;;;;;1.38;0.93;;;;;;;;;;4977245;28;20019;-77
2021/05/29 09:35:59;;;;;;;2.15;1.20;;;;;;;;;;4961306;28;20481;-77
2021/05/29 09:38:24;;;;;;;1.60;1.08;;;;;;;;;;4961277;28;20033;-76
2021/05/29 09:40:51;;;;;;;2.07;1.20;;;;;;;;;;4961398;28;20026;-76
2021/05/29 09:43:16;;;;;;;2.45;1.23;;;;;;;;;;4961189;28;20029;-76
2021/05/29 09:45:42;;;;;;;1.73;1.10;;;;;;;;;;4961146;28;20023;-76
2021/05/29 09:48:20;;;;;;;3.27;1.13;;;;;;;;;;4945152;28;20057;-76
2021/05/29 09:51:05;;;;;;;1.35;0.93;;;;;;;;;;4977104;28;20052;-77
2021/05/29 09:53:44;;;;;;;2.47;1.17;;;;;;;;;;4977255;28;20501;-76
2021/05/29 09:56:26;;;;;;;2.83;1.15;;;;;;;;;;4962663;28;20057;-76
2021/05/29 09:58:53;;;;;;;2.03;1.00;;;;;;;;;;4976969;28;20022;-76
2021/05/29 10:01:41;;;;;;;1.48;1.00;;;;;;;;;;4960977;28;20026;-76
2021/05/29 10:04:07;;;;;;;1.85;1.00;;;;;;;;;;4994315;28;20029;-76
2021/05/29 10:06:33;;;;;;;2.77;1.40;;;;;;;;;;4977008;28;20042;-76
2021/05/29 10:08:58;;;;;;;1.70;0.93;;;;;;;;;;4960873;28;20270;-76
2021/05/29 10:11:23;;;;;;;2.13;1.20;;;;;;;;;;4960641;28;20386;-76
2021/05/29 10:13:49;;;;;;;2.33;1.13;;;;;;;;;;4960599;28;20118;-76
2021/05/29 10:16:15;;;;;;;1.90;0.90;;;;;;;;;;4960554;28;20121;-76
2021/05/29 10:18:45;;;;;;;1.95;1.17;;;;;;;;;;4944928;28;20030;-76
2021/05/29 10:21:10;;;;;;;1.45;0.90;;;;;;;;;;4960826;28;20041;-77
2021/05/29 10:23:36;;;;;;;1.43;1.00;;;;;;;;;;4960457;28;20054;-76
2021/05/29 10:26:01;;;;;;;2.03;0.83;;;;;;;;;;4960381;28;20018;-77
2021/05/29 10:28:27;;;;;;;1.93;1.13;;;;;;;;;;4960560;28;20085;-77
2021/05/29 10:30:52;;;;;;;2.33;1.00;;;;;;;;;;4944493;28;20117;-76
2021/05/29 10:33:21;;;;;;;1.73;1.00;;;;;;;;;;4960367;28;20081;-76
2021/05/29 10:35:46;;;;;;;2.35;1.10;;;;;;;;;;4960717;28;20037;-76
2021/05/29 10:38:12;;;;;;;1.73;1.00;;;;;;;;;;4960404;28;20026;-76
2021/05/29 10:40:42;;;;;;;1.48;1.00;;;;;;;;;;4976091;28;20101;-76
2021/05/29 10:43:15;;;;;;;1.95;0.95;;;;;;;;;;4961421;28;20088;-76
2021/05/29 10:45:49;;;;;;;1.73;1.10;;;;;;;;;;4976579;28;20109;-76
2021/05/29 10:48:15;;;;;;;2.13;1.10;;;;;;;;;;4993736;28;20109;-76
2021/05/29 10:50:43;;;;;;;2.00;1.10;;;;;;;;;;4960362;28;20133;-76
2021/05/29 10:53:09;;;;;;;1.40;0.95;;;;;;;;;;4993718;28;20045;-76
2021/05/29 10:55:34;;;;;;;1.87;0.93;;;;;;;;;;4960282;28;20481;-77
2021/05/29 10:58:05;;;;;;;1.20;0.90;;;;;;;;;;4976344;28;20409;-76
2021/05/29 11:00:36;;;;;;;1.63;1.02;;;;;;;;;;4960653;28;20049;-77
2021/05/29 11:03:17;;;;;;;1.77;1.10;;;;;;;;;;4993661;28;20477;-76
2021/05/29 11:05:46;;;;;;;2.13;1.10;;;;;;;;;;4993522;28;20029;-76
2021/05/29 11:08:50;;;;;;;1.92;1.10;;;;;;;;;;4960507;28;20118;-77
2021/05/29 11:11:30;;;;;;;1.80;1.00;;;;;;;;;;4976222;28;20104;-76
2021/05/29 11:14:09;;;;;;;1.55;1.00;;;;;;;;;;4975982;28;20038;-77
2021/05/29 11:16:50;;;;;;;1.83;1.00;;;;;;;;;;4961188;28;20072;-76
2021/05/29 11:19:27;;;;;;;1.85;1.00;;;;;;;;;;4993541;28;20026;-77
2021/05/29 11:22:12;;;;;;;1.15;0.80;;;;;;;;;;4976169;28;20022;-76
2021/05/29 11:24:49;;;;;;;1.63;1.00;;;;;;;;;;4976195;28;20030;-76
2021/05/29 11:27:25;;;;;;;1.88;1.00;;;;;;;;;;4975385;28;20030;-77
2021/05/29 11:30:10;;;;;;;1.50;0.80;;;;;;;;;;4956932;28;20023;-76
2021/05/29 11:33:03;;;;;;;2.17;0.98;;;;;;;;;;4957416;28;20023;-76
2021/05/29 11:35:35;;;;;;;1.65;0.85;;;;;;;;;;4942959;28;20046;-76
2021/05/29 11:38:17;;;;;;;1.52;1.08;;;;;;;;;;4956933;28;20040;-76
2021/05/29 11:41:07;;;;;;;1.75;0.80;;;;;;;;;;4957366;28;20086;-76
2021/05/29 11:43:35;;;;;;;1.77;1.00;;;;;;;;;;4957502;28;20494;-76
2021/05/29 11:46:02;;;;;;;2.47;1.10;;;;;;;;;;4972708;28;20041;-76
2021/05/29 11:48:39;;;;;;;1.75;1.10;;;;;;;;;;4940644;28;20027;-76
2021/05/29 11:51:11;;;;;;;1.80;0.80;;;;;;;;;;4956812;28;20050;-77
2021/05/29 11:53:53;;;;;;;1.17;0.90;;;;;;;;;;4977168;28;20027;-76
2021/05/29 11:56:20;;;;;;;2.15;1.10;;;;;;;;;;4945024;28;20034;-76
2021/05/29 11:58:46;;;;;;;2.22;1.10;;;;;;;;;;4928065;28;20022;-77
2021/05/29 12:01:13;;;;;;;1.67;0.90;;;;;;;;;;4966834;28;20018;-76
2021/05/29 12:03:39;;;;;;;1.35;0.90;;;;;;;;;;4947143;28;20505;-77
2021/05/29 12:06:05;;;;;;;1.75;0.93;;;;;;;;;;4979434;28;20441;-76
2021/05/29 12:08:31;;;;;;;1.58;1.00;;;;;;;;;;4960644;28;20129;-76
2021/05/29 12:10:56;;;;;;;1.63;1.00;;;;;;;;;;4960421;28;20109;-77
2021/05/29 12:13:29;;;;;;;1.53;0.93;;;;;;;;;;4975410;28;20496;-77
2021/05/29 12:15:59;;;;;;;1.40;1.02;;;;;;;;;;4959047;28;20046;-76
2021/05/29 12:18:25;;;;;;;1.58;1.00;;;;;;;;;;4959329;28;20482;-76
2021/05/29 12:20:57;;;;;;;1.40;0.90;;;;;;;;;;4974841;28;20109;-77
2021/05/29 12:23:23;;;;;;;1.35;0.90;;;;;;;;;;4975175;28;20049;-77
2021/05/29 12:25:48;;;;;;;1.43;0.90;;;;;;;;;;4975754;28;20219;-78
2021/05/29 12:28:14;;;;;;;1.77;1.03;;;;;;;;;;4993214;28;20510;-77
2021/05/29 12:30:40;;;;;;;1.60;0.90;;;;;;;;;;4959718;28;20042;-77
2021/05/29 12:33:22;;;;;;;1.80;1.10;;;;;;;;;;4959209;28;20030;-77
2021/05/29 12:35:47;;;;;;;1.77;0.98;;;;;;;;;;4959344;28;20069;-77
2021/05/29 12:38:20;;;;;;;2.00;0.93;;;;;;;;;;4975260;28;20401;-77
2021/05/29 12:41:09;;;;;;;1.88;0.90;;;;;;;;;;4959946;28;20033;-77
2021/05/29 12:43:35;;;;;;;1.85;1.10;;;;;;;;;;4962983;28;20499;-76
2021/05/29 12:46:00;;;;;;;2.20;1.10;;;;;;;;;;4946202;28;20116;-75
2021/05/29 12:48:26;;;;;;;1.53;0.80;;;;;;;;;;4978656;28;20029;-76
2021/05/29 12:50:59;;;;;;;1.20;0.80;;;;;;;;;;4995632;28;20036;-76
2021/05/29 12:53:29;;;;;;;1.67;0.95;;;;;;;;;;4964131;28;20050;-76
2021/05/29 12:56:14;;;;;;;1.88;0.98;;;;;;;;;;4962573;28;20109;-76
2021/05/29 12:58:40;;;;;;;1.60;0.98;;;;;;;;;;4978309;28;20080;-76
2021/05/29 13:09:27;;;;;;;1.58;1.00;;;;;;;;;;4980939;28;20441;-78
2021/05/29 13:11:53;;;;;;;1.42;0.82;;;;;;;;;;4995452;28;20454;-77
2021/05/29 13:14:27;;;;;;;1.67;0.80;;;;;;;;;;4961763;28;20053;-77
2021/05/29 13:16:53;;;;;;;1.98;1.10;;;;;;;;;;4995535;28;20022;-77
2021/05/29 13:19:20;;;;;;;1.85;1.00;;;;;;;;;;4977833;28;20109;-76
2021/05/29 13:21:56;;;;;;;1.73;0.98;;;;;;;;;;4961782;28;20062;-77
2021/05/29 13:24:43;;;;;;;1.52;1.00;;;;;;;;;;4978211;28;20076;-77
2021/05/29 13:27:10;;;;;;;1.88;0.70;;;;;;;;;;4968707;28;20811;-77
2021/05/29 13:29:35;;;;;;;1.58;0.88;;;;;;;;;;4942594;28;20026;-77
2021/05/29 13:32:01;;;;;;;3.77;1.37;;;;;;;;;;4942245;28;20026;-77
2021/05/29 13:34:30;;;;;;;1.20;0.87;;;;;;;;;;4928385;28;20030;-76
2021/05/29 13:36:55;;;;;;;2.30;1.17;;;;;;;;;;4942542;28;20402;-77
2021/05/29 13:39:21;;;;;;;1.80;1.00;;;;;;;;;;4942746;28;20030;-76
2021/05/29 13:41:46;;;;;;;2.37;0.90;;;;;;;;;;4958155;28;20026;-76
2021/05/29 13:44:12;;;;;;;1.73;1.00;;;;;;;;;;4974535;28;20536;-77
2021/05/29 13:46:37;;;;;;;1.50;1.00;;;;;;;;;;4936174;28;20030;-77
2021/05/29 13:49:02;;;;;;;2.13;0.97;;;;;;;;;;4991173;28;20058;-77
2021/05/29 13:51:34;;;;;;;1.30;0.90;;;;;;;;;;4956529;28;20054;-76
2021/05/29 13:54:00;;;;;;;2.10;0.93;;;;;;;;;;4977015;28;20036;-77
2021/05/29 13:56:26;;;;;;;2.50;1.00;;;;;;;;;;4939340;28;20114;-76
2021/05/29 13:58:52;;;;;;;1.20;0.70;;;;;;;;;;4961101;28;20031;-77
2021/05/29 14:01:18;;;;;;;2.47;0.80;;;;;;;;;;4987080;28;20041;-77
2021/05/29 14:03:43;;;;;;;1.48;0.93;;;;;;;;;;4987367;28;20077;-77
2021/05/29 14:06:09;;;;;;;1.50;0.90;;;;;;;;;;4977432;28;20070;-77
2021/05/29 14:08:34;;;;;;;1.63;0.90;;;;;;;;;;4992512;28;20050;-76
2021/05/29 14:11:00;;;;;;;1.67;0.87;;;;;;;;;;4957501;28;20494;-77
2021/05/29 14:13:26;;;;;;;1.73;0.88;;;;;;;;;;4960137;28;20478;-77
2021/05/29 14:15:51;;;;;;;1.13;0.70;;;;;;;;;;4974209;28;20173;-77
2021/05/29 14:18:16;;;;;;;1.77;1.00;;;;;;;;;;4966252;28;20038;-77
2021/05/29 14:20:42;;;;;;;1.00;0.77;;;;;;;;;;4976359;28;20496;-77
2021/05/29 14:23:07;;;;;;;1.70;0.90;;;;;;;;;;4964884;28;20478;-77
2021/05/29 14:25:32;;;;;;;1.40;0.80;;;;;;;;;;4994563;28;20481;-77
2021/05/29 14:27:58;;;;;;;1.80;1.10;;;;;;;;;;4963648;28;20517;-77
2021/05/29 14:30:24;;;;;;;1.00;0.80;;;;;;;;;;4976587;28;20498;-77
2021/05/29 14:32:49;;;;;;;2.45;1.02;;;;;;;;;;4980548;28;20098;-77
2021/05/29 14:35:14;;;;;;;1.73;1.00;;;;;;;;;;4989700;28;20077;-77
2021/05/29 14:37:40;;;;;;;2.00;0.97;;;;;;;;;;4977779;28;20121;-77
2021/05/29 14:40:06;;;;;;;1.27;0.73;;;;;;;;;;4959919;28;20047;-77
2021/05/29 14:42:33;;;;;;;1.67;1.00;;;;;;;;;;4974848;28;20038;-77
2021/05/29 14:44:58;;;;;;;1.65;0.90;;;;;;;;;;4979432;28;20117;-77
2021/05/29 14:47:24;;;;;;;1.00;0.63;;;;;;;;;;4993938;28;20110;-76
2021/05/29 14:49:49;;;;;;;2.07;0.87;;;;;;;;;;4946565;28;20062;-77
2021/05/29 14:52:15;;;;;;;1.87;0.90;;;;;;;;;;4963359;28;20030;-77
2021/05/29 14:54:40;;;;;;;1.30;0.80;;;;;;;;;;4970225;28;20073;-77
2021/05/29 14:57:05;;;;;;;1.37;0.80;;;;;;;;;;4970780;28;20046;-76
2021/05/29 14:59:31;;;;;;;2.30;0.90;;;;;;;;;;4965033;28;20066;-77
2021/05/29 15:02:00;;;;;;;4.03;1.00;;;;;;;;;;4979220;28;20030;-77
2021/05/29 15:04:25;;;;;;;1.67;0.90;;;;;;;;;;4981142;28;20042;-77
2021/05/29 15:06:50;;;;;;;1.83;1.00;;;;;;;;;;4952955;28;20035;-77